Time;durP1;ratioP1;P1;durP2;ratioP2;P2;SDS_P1;SDS_P2;PMS_P1;PMS_P2;Temp;Humidity;BMP_temperature;BMP_pressure;BME280_temperature;BME280_humidity;BME280_pressure;Samples;Min_cycle;Max_cycle;Signal;HPM_P1;HPM_P2
2023/04/03 00:01:41;;;;;;;4.50;1.95;;;;;;;;;;4983401;28;20058;-71
2023/04/03 00:04:07;;;;;;;4.25;1.63;;;;;;;;;;4983113;28;20416;-71
2023/04/03 00:06:33;;;;;;;4.28;1.50;;;;;;;;;;4983204;28;20050;-71
2023/04/03 00:08:59;;;;;;;4.40;1.70;;;;;;;;;;4983453;28;20026;-73
2023/04/03 00:11:27;;;;;;;3.05;1.65;;;;;;;;;;4982897;28;20107;-68
2023/04/03 00:13:53;;;;;;;6.03;1.95;;;;;;;;;;4983672;28;20086;-72
2023/04/03 00:16:18;;;;;;;6.05;1.67;;;;;;;;;;4983401;28;20030;-72
2023/04/03 00:18:44;;;;;;;5.75;1.80;;;;;;;;;;4981779;28;20023;-73
2023/04/03 00:21:11;;;;;;;5.78;1.65;;;;;;;;;;4982245;28;20019;-72
2023/04/03 00:23:37;;;;;;;4.72;1.70;;;;;;;;;;4981984;28;20200;-72
2023/04/03 00:26:02;;;;;;;3.28;1.70;;;;;;;;;;4982761;28;20030;-72
2023/04/03 00:28:28;;;;;;;5.05;1.75;;;;;;;;;;4983135;28;20033;-71
2023/04/03 00:30:53;;;;;;;4.85;1.90;;;;;;;;;;4983346;28;20030;-72
2023/04/03 00:33:21;;;;;;;4.88;1.63;;;;;;;;;;4983123;28;20018;-71
2023/04/03 00:35:48;;;;;;;4.72;1.92;;;;;;;;;;4982627;28;20034;-72
2023/04/03 00:38:13;;;;;;;6.07;2.00;;;;;;;;;;4982111;28;20031;-73
2023/04/03 00:40:44;;;;;;;4.90;1.83;;;;;;;;;;4981830;28;20058;-73
2023/04/03 00:43:22;;;;;;;4.80;1.90;;;;;;;;;;4981762;28;20302;-74
2023/04/03 00:45:49;;;;;;;5.22;1.83;;;;;;;;;;4981993;28;20039;-73
2023/04/03 00:48:21;;;;;;;5.13;1.80;;;;;;;;;;4982229;28;20027;-72
2023/04/03 00:50:48;;;;;;;5.18;1.67;;;;;;;;;;4982857;28;20094;-72
2023/04/03 00:53:21;;;;;;;6.60;2.00;;;;;;;;;;4982368;28;20031;-72
2023/04/03 00:55:48;;;;;;;3.55;1.80;;;;;;;;;;4982723;28;20318;-72
2023/04/03 00:58:16;;;;;;;5.78;1.88;;;;;;;;;;4982637;28;20077;-74
2023/04/03 01:00:46;;;;;;;5.07;1.95;;;;;;;;;;4982588;28;20372;-71
2023/04/03 01:03:11;;;;;;;8.02;1.85;;;;;;;;;;4981562;28;20030;-72
2023/04/03 01:05:37;;;;;;;4.38;1.85;;;;;;;;;;4981548;28;20034;-72
2023/04/03 01:08:03;;;;;;;5.13;1.80;;;;;;;;;;4981974;28;20042;-73
2023/04/03 01:10:29;;;;;;;4.70;1.70;;;;;;;;;;4981268;28;20035;-73
2023/04/03 01:12:55;;;;;;;4.88;1.80;;;;;;;;;;4982275;28;20322;-72
2023/04/03 01:15:26;;;;;;;7.72;1.92;;;;;;;;;;4980771;28;20030;-74
2023/04/03 01:17:52;;;;;;;5.35;1.83;;;;;;;;;;4980771;28;20026;-71
2023/04/03 01:20:24;;;;;;;4.82;1.90;;;;;;;;;;4981928;28;20034;-73
2023/04/03 01:23:21;;;;;;;5.88;1.80;;;;;;;;;;4981801;28;20046;-74
2023/04/03 01:25:50;;;;;;;4.95;1.60;;;;;;;;;;4977839;28;20038;-72
2023/04/03 01:28:22;;;;;;;6.07;1.77;;;;;;;;;;4980979;28;20034;-72
2023/04/03 01:30:58;;;;;;;5.03;1.67;;;;;;;;;;4983926;28;20099;-72
2023/04/03 01:33:23;;;;;;;3.28;1.67;;;;;;;;;;4988166;28;20082;-73
2023/04/03 01:35:49;;;;;;;4.82;1.70;;;;;;;;;;4989750;28;20042;-73
2023/04/03 01:38:14;;;;;;;4.85;1.80;;;;;;;;;;4987246;28;20027;-74
2023/04/03 01:40:40;;;;;;;3.25;1.90;;;;;;;;;;4985987;28;20105;-71
2023/04/03 01:43:05;;;;;;;4.70;1.77;;;;;;;;;;4986252;28;20033;-71
2023/04/03 01:45:30;;;;;;;6.20;2.05;;;;;;;;;;4986378;28;20027;-73
2023/04/03 01:47:56;;;;;;;5.43;1.77;;;;;;;;;;4986082;28;20033;-73
2023/04/03 01:50:21;;;;;;;5.82;2.10;;;;;;;;;;4986207;28;20094;-71
2023/04/03 01:52:47;;;;;;;5.45;1.75;;;;;;;;;;4985894;28;20023;-71
2023/04/03 01:55:12;;;;;;;5.40;2.20;;;;;;;;;;4985666;28;20226;-72
2023/04/03 01:57:37;;;;;;;5.60;2.20;;;;;;;;;;4985897;28;20034;-72
2023/04/03 02:00:03;;;;;;;4.55;2.13;;;;;;;;;;4986090;28;20097;-73
2023/04/03 02:02:29;;;;;;;4.53;2.05;;;;;;;;;;4986032;28;20034;-73
2023/04/03 02:04:54;;;;;;;4.53;2.05;;;;;;;;;;4985893;28;20094;-73
2023/04/03 02:07:20;;;;;;;4.43;1.98;;;;;;;;;;4985654;28;20019;-71
2023/04/03 02:09:45;;;;;;;5.50;2.10;;;;;;;;;;4985503;28;20203;-71
2023/04/03 02:12:10;;;;;;;10.23;2.30;;;;;;;;;;4985836;28;20106;-71
2023/04/03 02:14:36;;;;;;;2.92;1.88;;;;;;;;;;4985624;28;20234;-70
2023/04/03 02:17:04;;;;;;;3.67;1.88;;;;;;;;;;4985612;28;20033;-70
2023/04/03 02:19:30;;;;;;;4.65;2.00;;;;;;;;;;4985359;28;20034;-71
2023/04/03 02:21:56;;;;;;;4.38;2.13;;;;;;;;;;4983906;28;20242;-73
2023/04/03 02:24:21;;;;;;;5.80;2.00;;;;;;;;;;4984451;28;20031;-72
2023/04/03 02:26:47;;;;;;;7.15;2.50;;;;;;;;;;4985041;28;20039;-73
2023/04/03 02:29:12;;;;;;;3.58;1.98;;;;;;;;;;4984239;28;20066;-74
2023/04/03 02:31:37;;;;;;;5.22;2.17;;;;;;;;;;4984769;28;20102;-72
2023/04/03 02:34:03;;;;;;;3.65;1.95;;;;;;;;;;4984791;28;20022;-72
2023/04/03 02:36:28;;;;;;;5.82;2.13;;;;;;;;;;4984675;28;20046;-70
2023/04/03 02:38:54;;;;;;;5.32;2.05;;;;;;;;;;4985243;28;20324;-74
2023/04/03 02:41:20;;;;;;;3.38;2.00;;;;;;;;;;4984185;28;20030;-73
2023/04/03 02:43:46;;;;;;;6.18;2.30;;;;;;;;;;4985125;28;20061;-73
2023/04/03 02:46:11;;;;;;;4.45;2.10;;;;;;;;;;4984484;28;20061;-73
2023/04/03 02:48:37;;;;;;;5.78;2.10;;;;;;;;;;4984512;28;20099;-73
2023/04/03 02:51:02;;;;;;;3.47;2.10;;;;;;;;;;4984264;28;20035;-73
2023/04/03 02:53:28;;;;;;;4.07;2.10;;;;;;;;;;4982905;28;20230;-73
2023/04/03 02:55:53;;;;;;;4.97;2.10;;;;;;;;;;4983389;28;20027;-72
2023/04/03 02:58:18;;;;;;;3.67;1.95;;;;;;;;;;4983572;28;20093;-72
2023/04/03 03:00:44;;;;;;;4.68;2.13;;;;;;;;;;4982982;28;20034;-73
2023/04/03 03:03:09;;;;;;;4.82;2.30;;;;;;;;;;4983787;28;20058;-73
2023/04/03 03:05:35;;;;;;;2.83;1.90;;;;;;;;;;4983716;28;20093;-73
2023/04/03 03:08:01;;;;;;;5.15;2.08;;;;;;;;;;4983524;28;20031;-74
2023/04/03 03:10:26;;;;;;;5.20;2.38;;;;;;;;;;4983197;28;20336;-73
2023/04/03 03:12:52;;;;;;;5.47;2.03;;;;;;;;;;4983740;28;20045;-73
2023/04/03 03:15:19;;;;;;;3.33;2.00;;;;;;;;;;4983257;28;20054;-72
2023/04/03 03:17:44;;;;;;;4.68;2.00;;;;;;;;;;4983420;28;20034;-72
2023/04/03 03:20:11;;;;;;;5.10;2.17;;;;;;;;;;4982980;28;20045;-73
2023/04/03 03:22:36;;;;;;;6.82;2.10;;;;;;;;;;4983694;28;20022;-74
2023/04/03 03:25:03;;;;;;;5.78;2.30;;;;;;;;;;4983775;28;20093;-73
2023/04/03 03:27:28;;;;;;;3.67;2.08;;;;;;;;;;4983834;28;20075;-72
2023/04/03 03:29:53;;;;;;;5.57;2.25;;;;;;;;;;4984309;28;20106;-72
2023/04/03 03:32:19;;;;;;;3.25;2.20;;;;;;;;;;4984482;28;20052;-72
2023/04/03 03:34:45;;;;;;;3.95;2.10;;;;;;;;;;4984167;28;20026;-72
2023/04/03 03:37:10;;;;;;;4.90;2.15;;;;;;;;;;4982841;28;20399;-73
2023/04/03 03:39:35;;;;;;;3.70;2.10;;;;;;;;;;4984086;28;20027;-74
2023/04/03 03:42:01;;;;;;;4.80;2.30;;;;;;;;;;4984243;28;20065;-74
2023/04/03 03:44:28;;;;;;;4.47;2.20;;;;;;;;;;4984121;28;20022;-72
2023/04/03 03:46:54;;;;;;;5.70;2.30;;;;;;;;;;4984149;28;20040;-72
2023/04/03 03:49:20;;;;;;;4.82;2.40;;;;;;;;;;4983678;28;20030;-72
2023/04/03 03:51:45;;;;;;;6.30;2.40;;;;;;;;;;4983922;28;20367;-72
2023/04/03 03:54:11;;;;;;;5.82;2.30;;;;;;;;;;4982521;28;20210;-73
2023/04/03 03:56:36;;;;;;;6.35;2.67;;;;;;;;;;4982801;28;20041;-74
2023/04/03 03:59:01;;;;;;;4.18;2.38;;;;;;;;;;4982386;28;20049;-73
2023/04/03 04:01:27;;;;;;;4.22;2.38;;;;;;;;;;4982622;28;20090;-72
2023/04/03 04:03:53;;;;;;;5.28;2.65;;;;;;;;;;4983150;28;20045;-73
2023/04/03 04:06:19;;;;;;;5.15;2.40;;;;;;;;;;4983774;28;20138;-72
2023/04/03 04:08:44;;;;;;;5.05;2.38;;;;;;;;;;4983454;28;20086;-72
2023/04/03 04:11:10;;;;;;;3.92;1.98;;;;;;;;;;4983699;28;20033;-71
2023/04/03 04:13:35;;;;;;;3.83;2.28;;;;;;;;;;4983682;28;20266;-73
2023/04/03 04:16:01;;;;;;;3.95;2.22;;;;;;;;;;4983262;28;20266;-73
2023/04/03 04:18:26;;;;;;;4.25;2.38;;;;;;;;;;4982176;28;20039;-71
2023/04/03 04:20:52;;;;;;;4.32;2.22;;;;;;;;;;4982891;28;20062;-72
2023/04/03 04:23:18;;;;;;;4.13;2.33;;;;;;;;;;4983520;28;20053;-72
2023/04/03 04:25:45;;;;;;;4.97;2.35;;;;;;;;;;4983337;28;20027;-72
2023/04/03 04:28:11;;;;;;;4.75;2.50;;;;;;;;;;4981727;28;20273;-72
2023/04/03 04:30:36;;;;;;;4.18;2.38;;;;;;;;;;4980809;28;20081;-72
2023/04/03 04:33:02;;;;;;;5.75;2.50;;;;;;;;;;4982026;28;20034;-72
2023/04/03 04:35:28;;;;;;;5.40;2.35;;;;;;;;;;4981442;28;20030;-72
2023/04/03 04:37:53;;;;;;;3.38;2.35;;;;;;;;;;4981696;28;20302;-72
2023/04/03 04:40:19;;;;;;;4.28;2.47;;;;;;;;;;4981730;28;20095;-72
2023/04/03 04:42:44;;;;;;;4.38;2.40;;;;;;;;;;4981686;28;20038;-74
2023/04/03 04:45:10;;;;;;;3.47;2.50;;;;;;;;;;4981527;28;20031;-73
2023/04/03 04:47:35;;;;;;;6.13;2.45;;;;;;;;;;4981268;28;20358;-71
2023/04/03 04:50:01;;;;;;;5.60;2.38;;;;;;;;;;4981116;28;20223;-73
2023/04/03 04:52:26;;;;;;;3.80;2.47;;;;;;;;;;4982290;28;20041;-73
2023/04/03 04:54:52;;;;;;;7.20;2.45;;;;;;;;;;4981290;28;20158;-73
2023/04/03 04:57:17;;;;;;;4.07;2.22;;;;;;;;;;4981561;28;20040;-72
2023/04/03 04:59:42;;;;;;;5.63;2.40;;;;;;;;;;4996320;28;20026;-72
2023/04/03 05:02:08;;;;;;;5.15;2.38;;;;;;;;;;4981614;28;20030;-72
2023/04/03 05:04:33;;;;;;;4.85;2.20;;;;;;;;;;4980459;28;20066;-72
2023/04/03 05:06:59;;;;;;;3.78;2.38;;;;;;;;;;4980974;28;20037;-72
2023/04/03 05:09:24;;;;;;;4.70;2.50;;;;;;;;;;4979285;28;20034;-72
2023/04/03 05:11:50;;;;;;;4.78;2.53;;;;;;;;;;4981605;28;20078;-72
2023/04/03 05:14:16;;;;;;;5.40;2.65;;;;;;;;;;4982304;28;20327;-73
2023/04/03 05:16:41;;;;;;;5.22;2.58;;;;;;;;;;4982396;28;20203;-70
2023/04/03 05:19:06;;;;;;;5.50;2.45;;;;;;;;;;4981067;28;20035;-70
2023/04/03 05:21:32;;;;;;;5.93;2.70;;;;;;;;;;4981425;28;20038;-72
2023/04/03 05:24:02;;;;;;;6.32;2.70;;;;;;;;;;4982555;28;20033;-71
2023/04/03 05:26:29;;;;;;;4.38;2.53;;;;;;;;;;4982479;28;20027;-73
2023/04/03 05:28:55;;;;;;;7.05;2.75;;;;;;;;;;4983284;28;20038;-71
2023/04/03 05:31:20;;;;;;;4.43;2.60;;;;;;;;;;4986992;28;20041;-72
2023/04/03 05:33:46;;;;;;;4.63;2.60;;;;;;;;;;4981638;28;20144;-72
2023/04/03 05:36:12;;;;;;;4.80;2.38;;;;;;;;;;4971669;28;20038;-72
2023/04/03 05:38:38;;;;;;;4.57;2.60;;;;;;;;;;4971573;28;20587;-72
2023/04/03 05:41:04;;;;;;;6.03;2.65;;;;;;;;;;4982563;28;20035;-73
2023/04/03 05:43:29;;;;;;;3.30;2.58;;;;;;;;;;4981860;28;20473;-72
2023/04/03 05:45:55;;;;;;;3.80;2.70;;;;;;;;;;4982141;28;20031;-72
2023/04/03 05:48:20;;;;;;;4.78;2.97;;;;;;;;;;4982110;28;20045;-71
2023/04/03 05:50:46;;;;;;;4.03;2.38;;;;;;;;;;4980581;28;20041;-73
2023/04/03 05:53:23;;;;;;;5.45;2.50;;;;;;;;;;4980919;28;20034;-71
2023/04/03 05:55:49;;;;;;;6.35;2.70;;;;;;;;;;4981506;28;20090;-72
2023/04/03 05:58:14;;;;;;;7.75;2.78;;;;;;;;;;4979898;28;20415;-75
2023/04/03 06:00:39;;;;;;;4.35;2.97;;;;;;;;;;4976542;28;20038;-68
2023/04/03 06:03:06;;;;;;;3.65;2.45;;;;;;;;;;4980139;28;20098;-74
2023/04/03 06:05:31;;;;;;;6.18;2.60;;;;;;;;;;4981002;28;20035;-74
2023/04/03 06:07:57;;;;;;;4.38;2.75;;;;;;;;;;4980717;28;20208;-74
2023/04/03 06:10:23;;;;;;;6.40;2.58;;;;;;;;;;4978862;28;20026;-74
2023/04/03 06:12:48;;;;;;;5.00;2.67;;;;;;;;;;4970626;28;20554;-77
2023/04/03 06:15:15;;;;;;;6.47;2.80;;;;;;;;;;4971651;28;20019;-79
2023/04/03 06:17:40;;;;;;;5.85;2.53;;;;;;;;;;4974440;28;20480;-74
2023/04/03 06:20:07;;;;;;;3.92;2.45;;;;;;;;;;4974210;28;20046;-74
2023/04/03 06:22:33;;;;;;;5.82;2.40;;;;;;;;;;4973843;28;20027;-76
2023/04/03 06:24:58;;;;;;;4.97;2.50;;;;;;;;;;4974579;28;20582;-76
2023/04/03 06:27:23;;;;;;;4.50;2.75;;;;;;;;;;4974140;28;20023;-76
2023/04/03 06:29:49;;;;;;;7.80;2.55;;;;;;;;;;4973902;28;20035;-73
2023/04/03 06:32:15;;;;;;;4.47;2.60;;;;;;;;;;4972656;28;20447;-76
2023/04/03 06:34:41;;;;;;;4.10;2.45;;;;;;;;;;4975365;28;20027;-75
2023/04/03 06:37:13;;;;;;;4.30;2.38;;;;;;;;;;4977904;28;20101;-75
2023/04/03 06:39:38;;;;;;;4.00;2.40;;;;;;;;;;4981534;28;20326;-75
2023/04/03 06:42:04;;;;;;;5.68;2.70;;;;;;;;;;4973910;28;20062;-75
2023/04/03 06:44:29;;;;;;;6.40;2.63;;;;;;;;;;4978426;28;20027;-73
2023/04/03 06:46:55;;;;;;;5.38;2.75;;;;;;;;;;4973413;28;20026;-73
2023/04/03 06:49:20;;;;;;;6.20;2.90;;;;;;;;;;4972928;28;20054;-74
2023/04/03 06:51:45;;;;;;;6.05;2.55;;;;;;;;;;4973130;28;20399;-73
2023/04/03 06:54:11;;;;;;;4.97;2.30;;;;;;;;;;4976007;28;20023;-73
2023/04/03 06:56:37;;;;;;;5.05;2.50;;;;;;;;;;4983900;28;20329;-72
2023/04/03 06:59:02;;;;;;;4.57;2.55;;;;;;;;;;4989815;28;20034;-73
2023/04/03 07:01:30;;;;;;;4.72;2.50;;;;;;;;;;4990829;28;20029;-73
2023/04/03 07:03:56;;;;;;;4.93;2.65;;;;;;;;;;4970574;28;20034;-73
2023/04/03 07:06:21;;;;;;;5.32;3.28;;;;;;;;;;4970726;28;20038;-73
2023/04/03 07:08:50;;;;;;;4.70;2.50;;;;;;;;;;4969823;28;20043;-70
2023/04/03 07:11:16;;;;;;;7.65;3.03;;;;;;;;;;4978686;28;20405;-71
2023/04/03 07:13:42;;;;;;;3.92;2.42;;;;;;;;;;5004280;28;20027;-72
2023/04/03 07:16:08;;;;;;;5.28;2.70;;;;;;;;;;4973548;28;20084;-71
2023/04/03 07:18:34;;;;;;;5.47;2.50;;;;;;;;;;4980626;28;20101;-70
2023/04/03 07:21:00;;;;;;;5.28;2.67;;;;;;;;;;4992668;28;20568;-72
2023/04/03 07:23:26;;;;;;;8.38;2.60;;;;;;;;;;4989934;28;20028;-69
2023/04/03 07:25:52;;;;;;;4.53;2.60;;;;;;;;;;4972912;28;20027;-72
2023/04/03 07:28:20;;;;;;;5.38;2.72;;;;;;;;;;4984089;28;20027;-72
2023/04/03 07:30:47;;;;;;;6.50;2.70;;;;;;;;;;4971974;28;20058;-71
2023/04/03 07:33:15;;;;;;;5.45;2.75;;;;;;;;;;4972752;28;20467;-69
2023/04/03 07:35:41;;;;;;;5.85;2.70;;;;;;;;;;4972915;28;20553;-72
2023/04/03 07:38:06;;;;;;;7.22;2.60;;;;;;;;;;4972864;28;20022;-70
2023/04/03 07:40:32;;;;;;;4.97;2.42;;;;;;;;;;4972655;28;20134;-71
2023/04/03 07:42:58;;;;;;;5.07;2.47;;;;;;;;;;4970788;28;20027;-72
2023/04/03 07:45:24;;;;;;;5.60;2.70;;;;;;;;;;4980279;28;20034;-73
2023/04/03 07:47:50;;;;;;;8.05;2.53;;;;;;;;;;4970061;28;20027;-70
2023/04/03 07:50:16;;;;;;;5.03;2.63;;;;;;;;;;4970192;28;20038;-70
2023/04/03 07:52:41;;;;;;;7.18;2.50;;;;;;;;;;4970402;28;20026;-68
2023/04/03 07:55:07;;;;;;;4.75;2.63;;;;;;;;;;4970762;28;20018;-68
2023/04/03 07:57:32;;;;;;;7.53;2.83;;;;;;;;;;4972074;28;20034;-68
2023/04/03 07:59:58;;;;;;;5.07;2.60;;;;;;;;;;4972018;28;20031;-67
2023/04/03 08:02:23;;;;;;;4.75;2.50;;;;;;;;;;4970174;28;20101;-67
2023/04/03 08:04:49;;;;;;;5.25;2.70;;;;;;;;;;4972149;28;20035;-68
2023/04/03 08:07:14;;;;;;;5.72;2.63;;;;;;;;;;4972069;28;20030;-69
2023/04/03 08:09:40;;;;;;;6.00;2.30;;;;;;;;;;4973872;28;20407;-70
2023/04/03 08:12:05;;;;;;;6.03;2.65;;;;;;;;;;4974985;28;20499;-67
2023/04/03 08:14:36;;;;;;;3.85;2.67;;;;;;;;;;4972268;28;20027;-70
2023/04/03 08:17:04;;;;;;;4.88;2.50;;;;;;;;;;4972304;28;20031;-72
2023/04/03 08:19:29;;;;;;;4.65;2.30;;;;;;;;;;4972351;28;20034;-68
2023/04/03 08:21:55;;;;;;;5.15;2.80;;;;;;;;;;4973008;28;20027;-69
2023/04/03 08:24:21;;;;;;;7.45;2.50;;;;;;;;;;4973207;28;20056;-70
2023/04/03 08:26:46;;;;;;;4.45;2.30;;;;;;;;;;4981379;28;20031;-70
2023/04/03 08:29:11;;;;;;;3.90;2.30;;;;;;;;;;4978023;28;20031;-65
2023/04/03 08:31:37;;;;;;;4.20;2.30;;;;;;;;;;4973311;28;20031;-68
2023/04/03 08:34:03;;;;;;;5.90;2.50;;;;;;;;;;4972199;28;20089;-66
2023/04/03 08:36:30;;;;;;;8.73;2.65;;;;;;;;;;4971674;28;20470;-68
2023/04/03 08:38:56;;;;;;;5.70;2.20;;;;;;;;;;4971266;28;20608;-66
2023/04/03 08:41:33;;;;;;;8.50;2.70;;;;;;;;;;4970814;28;20402;-66
2023/04/03 08:44:14;;;;;;;7.60;2.70;;;;;;;;;;4970988;28;20030;-66
2023/04/03 08:46:51;;;;;;;7.10;2.72;;;;;;;;;;4970723;28;20110;-65
2023/04/03 08:49:29;;;;;;;5.60;2.30;;;;;;;;;;4968801;28;20027;-66
2023/04/03 08:51:57;;;;;;;7.55;2.50;;;;;;;;;;4969434;28;20170;-66
2023/04/03 08:54:33;;;;;;;6.55;2.67;;;;;;;;;;4970483;28;20049;-69
2023/04/03 08:57:02;;;;;;;5.75;2.40;;;;;;;;;;4969625;28;20270;-69
2023/04/03 08:59:32;;;;;;;6.85;2.42;;;;;;;;;;4970753;28;20474;-68
2023/04/03 09:02:01;;;;;;;6.38;2.30;;;;;;;;;;4971538;28;20356;-68
2023/04/03 09:04:29;;;;;;;5.90;2.20;;;;;;;;;;4971051;28;20043;-68
2023/04/03 09:07:01;;;;;;;6.63;2.55;;;;;;;;;;4971457;28;20034;-68
2023/04/03 09:09:41;;;;;;;3.90;2.13;;;;;;;;;;4970994;28;20113;-68
2023/04/03 09:12:17;;;;;;;3.83;2.00;;;;;;;;;;4971375;28;20081;-68
2023/04/03 09:15:08;;;;;;;5.32;2.03;;;;;;;;;;4971023;28;20035;-68
2023/04/03 09:17:51;;;;;;;4.78;2.03;;;;;;;;;;4971295;28;20027;-68
2023/04/03 09:20:21;;;;;;;4.10;2.00;;;;;;;;;;4971215;28;20027;-68
2023/04/03 09:22:48;;;;;;;5.55;1.58;;;;;;;;;;4972677;28;20434;-68
2023/04/03 09:25:19;;;;;;;3.03;1.52;;;;;;;;;;4974741;28;20022;-68
2023/04/03 09:27:45;;;;;;;4.45;1.92;;;;;;;;;;4971055;28;20022;-67
2023/04/03 09:30:23;;;;;;;3.92;1.60;;;;;;;;;;4970885;28;20034;-68
2023/04/03 09:32:51;;;;;;;5.03;1.80;;;;;;;;;;4971148;28;20038;-69
2023/04/03 09:35:20;;;;;;;4.32;2.00;;;;;;;;;;4971122;28;20026;-68
2023/04/03 09:37:48;;;;;;;4.97;1.80;;;;;;;;;;4971004;28;20031;-68
2023/04/03 09:40:35;;;;;;;6.97;1.80;;;;;;;;;;4971271;28;20027;-68
2023/04/03 09:43:21;;;;;;;4.07;1.80;;;;;;;;;;4970942;28;20043;-67
2023/04/03 09:45:47;;;;;;;5.18;1.70;;;;;;;;;;4970880;28;20030;-67
2023/04/03 09:48:13;;;;;;;4.38;1.83;;;;;;;;;;4970741;28;20031;-69
2023/04/03 09:51:01;;;;;;;3.85;1.90;;;;;;;;;;4971052;28;20042;-68
2023/04/03 09:53:38;;;;;;;3.00;1.50;;;;;;;;;;4974609;28;20058;-68
2023/04/03 09:56:26;;;;;;;5.50;1.75;;;;;;;;;;4973684;28;20106;-68
2023/04/03 09:58:51;;;;;;;3.90;1.42;;;;;;;;;;4974336;28;20134;-67
2023/04/03 10:01:35;;;;;;;4.90;1.67;;;;;;;;;;4974711;28;20066;-66
2023/04/03 10:04:06;;;;;;;4.78;1.70;;;;;;;;;;4974152;28;20047;-67
2023/04/03 10:06:40;;;;;;;4.75;1.80;;;;;;;;;;4974385;28;20187;-67
2023/04/03 10:09:18;;;;;;;3.10;1.45;;;;;;;;;;4974105;28;20541;-67
2023/04/03 10:12:12;;;;;;;6.40;1.65;;;;;;;;;;4974256;28;20051;-68
2023/04/03 10:14:40;;;;;;;3.13;1.50;;;;;;;;;;4973000;28;20122;-68
2023/04/03 10:17:09;;;;;;;5.57;1.80;;;;;;;;;;4974470;28;20360;-68
2023/04/03 10:19:46;;;;;;;3.55;1.50;;;;;;;;;;4974377;28;20039;-68
2023/04/03 10:22:32;;;;;;;4.32;1.55;;;;;;;;;;4973972;28;20722;-67
2023/04/03 10:25:26;;;;;;;4.07;1.60;;;;;;;;;;4973906;28;20447;-68
2023/04/03 10:28:10;;;;;;;4.68;1.70;;;;;;;;;;4952449;28;20776;-68
2023/04/03 10:30:58;;;;;;;3.00;1.42;;;;;;;;;;4973467;28;20042;-68
2023/04/03 10:33:42;;;;;;;4.38;1.60;;;;;;;;;;4965867;28;20628;-68
2023/04/03 10:36:39;;;;;;;2.65;1.40;;;;;;;;;;4974069;28;20518;-67
2023/04/03 10:39:10;;;;;;;2.92;1.23;;;;;;;;;;4973847;28;20418;-69
2023/04/03 10:42:06;;;;;;;5.95;1.60;;;;;;;;;;4973545;28;20109;-68
2023/04/03 10:44:49;;;;;;;4.00;1.80;;;;;;;;;;4973594;28;20539;-67
2023/04/03 10:47:22;;;;;;;2.78;1.58;;;;;;;;;;4973970;28;20494;-67
2023/04/03 10:50:00;;;;;;;4.57;1.23;;;;;;;;;;4973613;28;20023;-68
2023/04/03 10:52:42;;;;;;;3.97;1.50;;;;;;;;;;4973626;28;20027;-68
2023/04/03 10:55:24;;;;;;;2.97;1.38;;;;;;;;;;4973589;28;20027;-67
2023/04/03 10:57:50;;;;;;;4.22;1.50;;;;;;;;;;4973735;28;20026;-67
2023/04/03 11:00:19;;;;;;;2.63;1.15;;;;;;;;;;4973099;28;20461;-68
2023/04/03 11:03:05;;;;;;;2.08;1.17;;;;;;;;;;4972476;28;20031;-68
2023/04/03 11:05:44;;;;;;;2.42;1.20;;;;;;;;;;4973432;28;20082;-68
2023/04/03 11:08:28;;;;;;;3.90;1.10;;;;;;;;;;4973425;28;20023;-68
2023/04/03 11:10:59;;;;;;;2.80;1.13;;;;;;;;;;4972871;28;20069;-68
2023/04/03 11:13:42;;;;;;;3.13;0.90;;;;;;;;;;4973390;28;20031;-68
2023/04/03 11:16:08;;;;;;;2.55;1.00;;;;;;;;;;4973228;28;20046;-67
2023/04/03 11:18:46;;;;;;;2.22;1.13;;;;;;;;;;4973211;28;20388;-68
2023/04/03 11:21:29;;;;;;;2.20;0.93;;;;;;;;;;4971590;28;20113;-68
2023/04/03 11:23:58;;;;;;;4.40;1.13;;;;;;;;;;4973130;28;20427;-67
2023/04/03 11:26:29;;;;;;;4.82;1.10;;;;;;;;;;4973421;28;20030;-67
2023/04/03 11:29:05;;;;;;;2.55;1.10;;;;;;;;;;4973012;28;20061;-68
2023/04/03 11:32:06;;;;;;;2.90;1.25;;;;;;;;;;4972929;28;20031;-68
2023/04/03 11:34:41;;;;;;;4.20;1.48;;;;;;;;;;4972907;28;20035;-67
2023/04/03 11:37:28;;;;;;;2.97;1.20;;;;;;;;;;4971573;28;20117;-67
2023/04/03 11:40:02;;;;;;;2.50;1.10;;;;;;;;;;4972706;28;20030;-67
2023/04/03 11:42:36;;;;;;;3.38;1.17;;;;;;;;;;4972917;28;20030;-67
2023/04/03 11:45:24;;;;;;;3.33;1.17;;;;;;;;;;4972402;28;20054;-72
2023/04/03 11:47:53;;;;;;;2.10;1.05;;;;;;;;;;4972664;28;20035;-69
2023/04/03 11:50:34;;;;;;;2.97;1.20;;;;;;;;;;4972405;28;20632;-68
2023/04/03 11:53:22;;;;;;;;;;;;;;;;;;4972541;28;20023;-67
2023/04/03 11:55:48;;;;;;;3.67;1.10;;;;;;;;;;4969241;28;19949;-67
2023/04/03 11:58:25;;;;;;;3.22;0.98;;;;;;;;;;4972497;28;20066;-67
2023/04/03 12:01:06;;;;;;;3.00;1.10;;;;;;;;;;4972222;28;20572;-68
2023/04/03 12:03:33;;;;;;;4.65;1.23;;;;;;;;;;4972329;28;20051;-67
2023/04/03 12:06:05;;;;;;;5.70;1.20;;;;;;;;;;4972084;28;20613;-67
2023/04/03 12:08:33;;;;;;;2.83;1.00;;;;;;;;;;4972282;28;20434;-67
2023/04/03 12:11:08;;;;;;;2.70;1.20;;;;;;;;;;4971577;28;20031;-67
2023/04/03 12:13:34;;;;;;;2.22;1.25;;;;;;;;;;4971954;28;20058;-69
2023/04/03 12:16:00;;;;;;;3.30;1.30;;;;;;;;;;4972056;28;20027;-68
2023/04/03 12:18:53;;;;;;;3.95;1.42;;;;;;;;;;4972196;28;20368;-68
2023/04/03 12:21:31;;;;;;;2.17;0.95;;;;;;;;;;4971777;28;20030;-69
2023/04/03 12:24:02;;;;;;;2.03;1.10;;;;;;;;;;4971939;28;20034;-68
2023/04/03 12:26:50;;;;;;;2.53;0.90;;;;;;;;;;4971675;28;20023;-68
2023/04/03 12:29:34;;;;;;;2.38;0.95;;;;;;;;;;4971983;28;20146;-69
2023/04/03 12:32:37;;;;;;;2.38;1.00;;;;;;;;;;4971670;28;20031;-68
2023/04/03 12:35:29;;;;;;;3.53;1.33;;;;;;;;;;4971762;28;20031;-68
2023/04/03 12:38:27;;;;;;;3.03;1.20;;;;;;;;;;4971742;28;20031;-67
2023/04/03 12:41:21;;;;;;;10.25;2.13;;;;;;;;;;4971556;28;20689;-68
2023/04/03 12:44:13;;;;;;;4.38;1.38;;;;;;;;;;4971684;28;20027;-67
2023/04/03 12:46:43;;;;;;;4.15;1.27;;;;;;;;;;4971463;28;20035;-68
2023/04/03 12:49:35;;;;;;;4.10;1.20;;;;;;;;;;4971341;28;20117;-67
2023/04/03 12:52:05;;;;;;;2.45;1.08;;;;;;;;;;4971255;28;20027;-68
2023/04/03 12:54:41;;;;;;;3.88;1.50;;;;;;;;;;4971632;28;20015;-67
2023/04/03 12:57:17;;;;;;;3.33;1.30;;;;;;;;;;4971444;28;20026;-67
2023/04/03 12:59:45;;;;;;;5.35;1.35;;;;;;;;;;4971270;28;20479;-68
2023/04/03 13:02:20;;;;;;;5.35;1.30;;;;;;;;;;4970911;28;20046;-67
2023/04/03 13:04:46;;;;;;;3.90;1.33;;;;;;;;;;4971091;28;20081;-67
2023/04/03 13:07:28;;;;;;;5.97;1.40;;;;;;;;;;4971013;28;20062;-67
2023/04/03 13:09:59;;;;;;;5.72;1.70;;;;;;;;;;4971291;28;20038;-68
2023/04/03 13:12:25;;;;;;;3.97;1.13;;;;;;;;;;4971099;28;20027;-67
2023/04/03 13:15:00;;;;;;;3.90;1.30;;;;;;;;;;4971480;28;20038;-67
2023/04/03 13:17:27;;;;;;;3.58;1.00;;;;;;;;;;4971084;28;20038;-68
2023/04/03 13:19:54;;;;;;;2.85;1.20;;;;;;;;;;4972194;28;20049;-68
2023/04/03 13:22:27;;;;;;;3.42;1.20;;;;;;;;;;4974071;28;20080;-67
2023/04/03 13:24:54;;;;;;;4.43;1.20;;;;;;;;;;4972880;28;20039;-69
2023/04/03 13:27:20;;;;;;;3.30;1.00;;;;;;;;;;4970708;28;20031;-66
2023/04/03 13:29:51;;;;;;;3.75;1.50;;;;;;;;;;4971104;28;20030;-67
2023/04/03 13:32:23;;;;;;;3.00;1.10;;;;;;;;;;4970993;28;20030;-65
2023/04/03 13:34:49;;;;;;;3.67;1.20;;;;;;;;;;4971221;28;20035;-67
2023/04/03 13:37:33;;;;;;;2.72;1.10;;;;;;;;;;4970742;28;20037;-68
2023/04/03 13:40:10;;;;;;;3.22;1.30;;;;;;;;;;4970896;28;20062;-69
2023/04/03 13:42:41;;;;;;;3.80;1.30;;;;;;;;;;4970438;28;20023;-68
2023/04/03 13:45:22;;;;;;;5.57;1.30;;;;;;;;;;4970959;28;20429;-68
2023/04/03 13:47:49;;;;;;;6.00;1.50;;;;;;;;;;4970817;28;20041;-68
2023/04/03 13:50:17;;;;;;;4.68;1.35;;;;;;;;;;4970970;28;20042;-67
2023/04/03 13:52:55;;;;;;;4.97;1.10;;;;;;;;;;4970433;28;20035;-67
2023/04/03 13:55:27;;;;;;;2.80;1.00;;;;;;;;;;4970748;28;20034;-67
2023/04/03 13:58:13;;;;;;;5.45;1.20;;;;;;;;;;4970530;28;20035;-67
2023/04/03 14:00:49;;;;;;;4.57;1.27;;;;;;;;;;4970013;28;20119;-68
2023/04/03 14:03:29;;;;;;;3.53;1.10;;;;;;;;;;4970488;28;20034;-69
2023/04/03 14:05:55;;;;;;;3.05;1.10;;;;;;;;;;4970543;28;20065;-68
2023/04/03 14:08:21;;;;;;;2.65;1.00;;;;;;;;;;4969501;28;20043;-68
2023/04/03 14:10:49;;;;;;;3.88;1.23;;;;;;;;;;4970413;28;20454;-68
2023/04/03 14:13:16;;;;;;;4.15;1.35;;;;;;;;;;4970577;28;20031;-68
2023/04/03 14:15:42;;;;;;;2.80;1.02;;;;;;;;;;4970615;28;20023;-68
2023/04/03 14:18:12;;;;;;;4.32;1.20;;;;;;;;;;4970477;28;20399;-69
2023/04/03 14:20:37;;;;;;;5.05;1.25;;;;;;;;;;4970674;28;20062;-68
2023/04/03 14:23:03;;;;;;;3.97;1.30;;;;;;;;;;4970181;28;20058;-69
2023/04/03 14:25:29;;;;;;;4.18;1.27;;;;;;;;;;4970656;28;20031;-69
2023/04/03 14:27:55;;;;;;;4.75;1.38;;;;;;;;;;4970552;28;20027;-69
2023/04/03 14:30:29;;;;;;;4.18;1.20;;;;;;;;;;4970364;28;20093;-68
2023/04/03 14:32:55;;;;;;;3.65;1.20;;;;;;;;;;4970024;28;20035;-68
2023/04/03 14:35:20;;;;;;;4.80;1.20;;;;;;;;;;4970286;28;20033;-68
2023/04/03 14:37:47;;;;;;;3.10;1.20;;;;;;;;;;4970764;28;20109;-69
2023/04/03 14:40:18;;;;;;;4.40;1.27;;;;;;;;;;4974059;28;20054;-68
2023/04/03 14:42:43;;;;;;;4.45;1.15;;;;;;;;;;4973721;28;20031;-68
2023/04/03 14:45:11;;;;;;;5.43;1.40;;;;;;;;;;4973850;28;20056;-68
2023/04/03 14:47:51;;;;;;;2.60;1.15;;;;;;;;;;4973421;28;20026;-68
2023/04/03 14:50:23;;;;;;;7.32;1.48;;;;;;;;;;4973685;28;20039;-68
2023/04/03 14:52:51;;;;;;;5.88;1.73;;;;;;;;;;4973378;28;20085;-68
2023/04/03 14:55:19;;;;;;;4.97;1.65;;;;;;;;;;4973809;28;20027;-68
2023/04/03 14:57:45;;;;;;;8.00;1.40;;;;;;;;;;4973418;28;20039;-68
2023/04/03 15:00:14;;;;;;;4.35;1.40;;;;;;;;;;4973773;28;20061;-68